Time;durP1;ratioP1;P1;durP2;ratioP2;P2;SDS_P1;SDS_P2;PMS_P1;PMS_P2;Temp;Humidity;BMP_temperature;BMP_pressure;BME280_temperature;BME280_humidity;BME280_pressure;Samples;Min_cycle;Max_cycle;Signal;HPM_P1;HPM_P2
2022/08/17 00:00:54;;;;;;;0.40;0.40;;;22.50;99.90;;;;;;5045689;28;20515;-66
2022/08/17 00:03:26;;;;;;;0.47;0.47;;;22.50;99.90;;;;;;5028359;28;20060;-66
2022/08/17 00:06:01;;;;;;;0.75;0.75;;;22.60;99.90;;;;;;5028443;28;20122;-66
2022/08/17 00:08:39;;;;;;;0.93;0.68;;;22.50;99.90;;;;;;5027726;28;20482;-66
2022/08/17 00:11:09;;;;;;;6.70;0.93;;;22.40;99.90;;;;;;5029973;28;20044;-66
2022/08/17 00:13:45;;;;;;;1.55;0.65;;;22.40;99.90;;;;;;5028903;28;20049;-66
2022/08/17 00:16:30;;;;;;;0.60;0.60;;;22.40;99.90;;;;;;5028764;28;20045;-66
2022/08/17 00:18:57;;;;;;;1.02;0.95;;;22.40;99.90;;;;;;5027440;28;20603;-66
2022/08/17 00:21:22;;;;;;;1.27;1.20;;;22.40;99.90;;;;;;5035875;28;20132;-66
2022/08/17 00:23:48;;;;;;;1.10;1.10;;;22.40;99.90;;;;;;5044843;28;20131;-66
2022/08/17 00:26:14;;;;;;;0.52;0.52;;;22.40;99.90;;;;;;5047563;28;20037;-66
2022/08/17 00:28:41;;;;;;;1.23;0.88;;;22.30;99.90;;;;;;5029173;28;20608;-66
2022/08/17 00:31:08;;;;;;;0.90;0.60;;;22.30;99.90;;;;;;5033079;28;20080;-66
2022/08/17 00:33:34;;;;;;;0.22;0.22;;;22.30;99.90;;;;;;5031237;28;20052;-66
2022/08/17 00:36:01;;;;;;;0.10;0.10;;;22.30;99.90;;;;;;5027960;28;20468;-66
2022/08/17 00:38:28;;;;;;;0.00;0.00;;;22.30;99.90;;;;;;5044784;28;20051;-67
2022/08/17 00:40:59;;;;;;;0.43;0.38;;;22.30;99.90;;;;;;5036632;28;20091;-66
2022/08/17 00:43:28;;;;;;;0.70;0.70;;;22.30;99.90;;;;;;5047261;28;20068;-66
2022/08/17 00:45:54;;;;;;;0.45;0.45;;;22.30;99.90;;;;;;5044646;28;20045;-66
2022/08/17 00:48:20;;;;;;;0.52;0.43;;;22.30;99.90;;;;;;5027615;28;20493;-67
2022/08/17 00:50:58;;;;;;;0.40;0.40;;;22.30;99.90;;;;;;5028353;28;20041;-66
2022/08/17 00:53:27;;;;;;;0.68;0.68;;;22.30;99.90;;;;;;5031371;28;20045;-66
2022/08/17 00:55:53;;;;;;;0.35;0.35;;;22.30;99.90;;;;;;5028606;28;20045;-67
2022/08/17 00:58:19;;;;;;;0.38;0.38;;;22.30;99.90;;;;;;5028084;28;20044;-66
2022/08/17 01:00:46;;;;;;;0.35;0.35;;;22.20;99.90;;;;;;5033264;28;20545;-66
2022/08/17 01:03:15;;;;;;;0.55;0.55;;;22.20;99.90;;;;;;5047531;28;20057;-66
2022/08/17 01:05:42;;;;;;;0.60;0.60;;;22.20;99.90;;;;;;5033120;28;20054;-66
2022/08/17 01:08:11;;;;;;;0.95;0.95;;;22.20;99.90;;;;;;5037191;28;20056;-66
2022/08/17 01:10:47;;;;;;;0.45;0.38;;;22.10;99.90;;;;;;5037928;28;20041;-66
2022/08/17 01:13:14;;;;;;;0.77;0.57;;;22.20;99.90;;;;;;5027641;28;20048;-66
2022/08/17 01:15:45;;;;;;;0.45;0.45;;;22.20;99.90;;;;;;5034134;28;20080;-66
2022/08/17 01:18:12;;;;;;;0.80;0.80;;;22.20;99.90;;;;;;5063358;28;20135;-66
2022/08/17 01:20:45;;;;;;;1.17;1.02;;;22.20;99.90;;;;;;5041298;28;20037;-66
2022/08/17 01:23:10;;;;;;;;;;;22.10;99.90;;;;;;5040139;28;20485;-66
2022/08/17 01:25:36;;;;;;;0.45;0.45;;;22.10;99.90;;;;;;5046167;28;19928;-66
2022/08/17 01:28:02;;;;;;;1.25;0.90;;;22.10;99.90;;;;;;5035275;28;20045;-66
2022/08/17 01:30:28;;;;;;;0.93;0.93;;;22.10;99.90;;;;;;5031148;28;20191;-66
2022/08/17 01:32:54;;;;;;;0.35;0.30;;;22.10;99.90;;;;;;5047365;28;20757;-66
2022/08/17 01:35:19;;;;;;;0.22;0.22;;;22.10;99.90;;;;;;5036218;28;20587;-66
2022/08/17 01:37:45;;;;;;;1.90;0.82;;;22.00;99.90;;;;;;5043564;28;20041;-67
2022/08/17 01:40:14;;;;;;;2.58;1.10;;;22.00;99.90;;;;;;5037675;28;20048;-66
2022/08/17 01:42:57;;;;;;;1.48;1.08;;;22.00;99.90;;;;;;5043517;28;20535;-67
2022/08/17 01:45:27;;;;;;;0.38;0.38;;;21.90;99.90;;;;;;5051254;28;20041;-66
2022/08/17 01:47:54;;;;;;;0.38;0.38;;;21.90;99.90;;;;;;5049385;28;20076;-67
2022/08/17 01:50:24;;;;;;;0.63;0.38;;;21.90;99.90;;;;;;5049542;28;20045;-66
2022/08/17 01:52:54;;;;;;;0.57;0.45;;;21.90;99.90;;;;;;5038782;28;20106;-67
2022/08/17 01:55:27;;;;;;;0.50;0.50;;;21.90;99.90;;;;;;5030928;28;20049;-67
2022/08/17 01:57:53;;;;;;;0.47;0.47;;;21.80;99.90;;;;;;5048469;28;20519;-66
2022/08/17 02:00:18;;;;;;;0.65;0.65;;;21.80;99.90;;;;;;5039789;28;20037;-66
2022/08/17 02:02:44;;;;;;;0.55;0.55;;;21.80;99.90;;;;;;5048740;28;20110;-66
2022/08/17 02:05:11;;;;;;;5.47;1.20;;;21.70;99.90;;;;;;5050871;28;20041;-67
2022/08/17 02:07:37;;;;;;;2.05;0.47;;;21.80;99.90;;;;;;5044702;28;20045;-66
2022/08/17 02:10:04;;;;;;;4.85;0.65;;;21.70;99.90;;;;;;5037593;28;20041;-66
2022/08/17 02:12:30;;;;;;;0.25;0.17;;;21.70;99.90;;;;;;5041920;28;20038;-66
2022/08/17 02:14:56;;;;;;;1.13;1.08;;;21.70;99.90;;;;;;5037126;28;20469;-66
2022/08/17 02:17:21;;;;;;;0.40;0.38;;;21.70;99.90;;;;;;5037010;28;20142;-66
2022/08/17 02:19:47;;;;;;;0.88;0.60;;;21.70;99.90;;;;;;5037358;28;20045;-66
2022/08/17 02:22:13;;;;;;;0.20;0.20;;;21.60;99.90;;;;;;5049180;28;20076;-66
2022/08/17 02:24:38;;;;;;;0.57;0.57;;;21.60;99.90;;;;;;5046267;28;20040;-66
2022/08/17 02:27:04;;;;;;;0.25;0.25;;;21.60;99.90;;;;;;5034547;28;20964;-67
2022/08/17 02:29:30;;;;;;;0.10;0.10;;;21.60;99.90;;;;;;5042918;28;20049;-65
2022/08/17 02:31:57;;;;;;;1.20;1.10;;;21.60;99.90;;;;;;5043864;28;20041;-66
2022/08/17 02:34:23;;;;;;;0.00;0.00;;;21.60;99.90;;;;;;5043490;28;20115;-66
2022/08/17 02:36:49;;;;;;;0.00;0.00;;;21.50;99.90;;;;;;5037071;28;20044;-67
2022/08/17 02:39:15;;;;;;;0.57;0.50;;;21.50;99.90;;;;;;5042895;28;20045;-66
2022/08/17 02:41:40;;;;;;;0.68;0.68;;;21.50;99.90;;;;;;5048705;28;20130;-66
2022/08/17 02:44:06;;;;;;;0.80;0.70;;;21.50;99.90;;;;;;5049053;28;20037;-66
2022/08/17 02:46:32;;;;;;;0.80;0.75;;;21.50;99.90;;;;;;5049709;28;20496;-66
2022/08/17 02:48:58;;;;;;;1.20;1.00;;;21.50;99.90;;;;;;5037518;28;20612;-66
2022/08/17 02:51:26;;;;;;;3.78;1.23;;;21.50;99.90;;;;;;5041396;28;20041;-66
2022/08/17 02:53:51;;;;;;;0.55;0.50;;;21.40;99.90;;;;;;5049752;28;20048;-66
2022/08/17 02:56:17;;;;;;;0.88;0.50;;;21.40;99.90;;;;;;5048496;28;20051;-66
2022/08/17 02:58:43;;;;;;;0.77;0.50;;;21.40;99.90;;;;;;5049087;28;20481;-66
2022/08/17 03:01:09;;;;;;;0.75;0.57;;;21.40;99.90;;;;;;5048762;28;20053;-66
2022/08/17 03:03:36;;;;;;;2.72;2.05;;;21.40;99.90;;;;;;5048166;28;20519;-66
2022/08/17 03:06:03;;;;;;;0.85;0.85;;;21.40;99.90;;;;;;5037925;28;20136;-66
2022/08/17 03:08:30;;;;;;;0.82;0.82;;;21.30;99.90;;;;;;5031228;28;20052;-66
2022/08/17 03:10:56;;;;;;;0.32;0.32;;;21.40;99.90;;;;;;5028999;28;20045;-66
2022/08/17 03:13:21;;;;;;;0.73;0.65;;;21.30;99.90;;;;;;5028824;28;20048;-66
2022/08/17 03:15:48;;;;;;;0.63;0.55;;;21.30;99.90;;;;;;5030168;28;20120;-66
2022/08/17 03:18:16;;;;;;;1.63;0.98;;;21.30;99.90;;;;;;5034856;28;20040;-66
2022/08/17 03:20:42;;;;;;;7.38;1.00;;;21.20;99.90;;;;;;5043829;28;20056;-66
2022/08/17 03:23:08;;;;;;;1.25;0.55;;;21.20;99.90;;;;;;5028112;28;20056;-66
2022/08/17 03:25:41;;;;;;;0.20;0.20;;;21.20;99.90;;;;;;5029368;28;20053;-66
2022/08/17 03:28:08;;;;;;;0.57;0.55;;;21.20;99.90;;;;;;5027985;28;20046;-66
2022/08/17 03:30:33;;;;;;;1.63;1.35;;;21.10;99.90;;;;;;5033541;28;20045;-66
2022/08/17 03:33:01;;;;;;;0.13;0.13;;;21.20;99.90;;;;;;5037784;28;20048;-66
2022/08/17 03:35:30;;;;;;;0.82;0.82;;;21.10;99.90;;;;;;5035091;28;20494;-66
2022/08/17 03:37:56;;;;;;;3.35;1.42;;;21.10;99.90;;;;;;5048463;28;20079;-66
2022/08/17 03:40:22;;;;;;;0.38;0.38;;;21.10;99.90;;;;;;5030569;28;20045;-66
2022/08/17 03:42:52;;;;;;;1.63;1.13;;;21.10;99.90;;;;;;5042771;28;20041;-66
2022/08/17 03:56:41;;;;;;;0.88;0.28;;;21.10;99.90;;;;;;5048915;28;20052;-66
2022/08/17 03:56:41;;;;;;;0.15;0.15;;;21.10;99.90;;;;;;5027802;28;20493;-66
2022/08/17 03:59:08;;;;;;;0.43;0.43;;;21.00;99.90;;;;;;5044267;28;20107;-66
2022/08/17 04:01:34;;;;;;;0.45;0.45;;;21.00;99.90;;;;;;5029998;28;20049;-66
2022/08/17 04:03:59;;;;;;;0.55;0.55;;;21.00;99.90;;;;;;5034627;28;20124;-66
2022/08/17 04:06:25;;;;;;;0.73;0.73;;;21.00;99.90;;;;;;5047836;28;20033;-66
2022/08/17 04:08:50;;;;;;;0.10;0.10;;;21.00;99.90;;;;;;5045222;28;20774;-66
2022/08/17 04:11:16;;;;;;;0.47;0.47;;;21.00;99.90;;;;;;5026121;28;20107;-66
2022/08/17 04:13:41;;;;;;;1.95;0.68;;;21.00;99.90;;;;;;5036529;28;20045;-66
2022/08/17 04:16:07;;;;;;;0.28;0.28;;;20.90;99.90;;;;;;5029052;28;20485;-66
2022/08/17 04:18:32;;;;;;;0.68;0.57;;;20.90;99.90;;;;;;5032541;28;20500;-66
2022/08/17 04:20:58;;;;;;;0.38;0.28;;;20.80;99.90;;;;;;5046551;28;20378;-66
2022/08/17 04:23:27;;;;;;;1.17;0.90;;;20.90;99.90;;;;;;5047877;28;20059;-66
2022/08/17 04:25:53;;;;;;;1.00;1.00;;;20.80;99.90;;;;;;5030878;28;20053;-66
2022/08/17 04:28:19;;;;;;;0.93;0.73;;;20.80;99.90;;;;;;5029916;28;20091;-66
2022/08/17 04:30:46;;;;;;;0.38;0.38;;;20.80;99.90;;;;;;5038485;28;20048;-66
2022/08/17 04:33:15;;;;;;;0.52;0.52;;;20.80;99.90;;;;;;5039795;28;20353;-66
2022/08/17 04:35:44;;;;;;;1.58;1.40;;;20.80;99.90;;;;;;5046602;28;20447;-66
2022/08/17 04:38:13;;;;;;;0.90;0.47;;;20.80;99.90;;;;;;5031716;28;20049;-66
2022/08/17 04:43:26;;;;;;;0.32;0.32;;;20.80;99.90;;;;;;5037433;28;20128;-66
2022/08/17 04:45:56;;;;;;;0.47;0.47;;;20.90;99.90;;;;;;5027696;28;20088;-66
2022/08/17 04:48:22;;;;;;;0.63;0.45;;;20.80;99.90;;;;;;5029608;28;20048;-66
2022/08/17 04:50:49;;;;;;;2.05;0.68;;;20.80;99.90;;;;;;5030950;28;20449;-66
2022/08/17 04:53:17;;;;;;;1.27;0.93;;;20.70;99.90;;;;;;5035637;28;20045;-66
2022/08/17 04:55:43;;;;;;;1.00;0.47;;;20.70;99.90;;;;;;5041590;28;20045;-66
2022/08/17 04:58:09;;;;;;;0.50;0.50;;;20.70;99.90;;;;;;5042960;28;20049;-66
2022/08/17 05:00:36;;;;;;;0.43;0.43;;;20.70;99.90;;;;;;5029793;28;20136;-66
2022/08/17 05:03:02;;;;;;;0.20;0.17;;;20.70;99.90;;;;;;5030500;28;20397;-66
2022/08/17 05:05:31;;;;;;;4.43;1.85;;;20.70;99.90;;;;;;5030511;28;20059;-66
2022/08/17 05:07:58;;;;;;;0.30;0.30;;;20.70;99.90;;;;;;5035677;28;20132;-66
2022/08/17 05:10:26;;;;;;;0.85;0.75;;;20.70;99.90;;;;;;5030062;28;20080;-66
2022/08/17 05:13:11;;;;;;;0.28;0.28;;;20.70;99.90;;;;;;5030295;28;20694;-66
2022/08/17 05:15:39;;;;;;;1.60;0.47;;;20.80;99.90;;;;;;5032072;28;20694;-66
2022/08/17 05:18:06;;;;;;;0.38;0.38;;;20.80;99.90;;;;;;5034892;28;20033;-66
2022/08/17 05:20:33;;;;;;;2.33;0.88;;;20.70;99.90;;;;;;5033024;28;20059;-66
2022/08/17 05:23:03;;;;;;;0.63;0.63;;;20.70;99.90;;;;;;5050887;28;20041;-66
2022/08/17 05:25:31;;;;;;;0.75;0.75;;;20.80;99.90;;;;;;5032562;28;20046;-66
2022/08/17 05:27:57;;;;;;;0.85;0.63;;;20.90;99.90;;;;;;5030293;28;20045;-66
2022/08/17 05:30:24;;;;;;;1.25;1.15;;;20.80;99.90;;;;;;5037353;28;20166;-66
2022/08/17 05:32:51;;;;;;;0.20;0.20;;;20.90;99.90;;;;;;5050553;28;20045;-66
2022/08/17 05:35:17;;;;;;;4.05;0.77;;;20.90;99.90;;;;;;5032738;28;20053;-66
2022/08/17 05:37:43;;;;;;;0.80;0.80;;;20.90;99.90;;;;;;5045040;28;20037;-66
2022/08/17 05:40:09;;;;;;;1.55;0.55;;;20.80;99.90;;;;;;5051402;28;20044;-66
2022/08/17 05:42:35;;;;;;;0.17;0.17;;;20.80;99.90;;;;;;5045361;28;20053;-66
2022/08/17 05:45:00;;;;;;;1.38;0.70;;;20.80;99.90;;;;;;5037866;28;20040;-66
2022/08/17 05:47:26;;;;;;;0.10;0.10;;;20.80;99.90;;;;;;5050842;28;20053;-66
2022/08/17 05:49:52;;;;;;;0.05;0.05;;;20.80;99.90;;;;;;5051514;28;20068;-66
2022/08/17 05:52:28;;;;;;;0.73;0.73;;;20.80;99.90;;;;;;5034050;28;20067;-66
2022/08/17 05:55:09;;;;;;;0.40;0.40;;;20.80;99.90;;;;;;5030309;28;20067;-67
2022/08/17 05:57:43;;;;;;;0.40;0.40;;;20.80;99.90;;;;;;5040412;28;20045;-66
2022/08/17 06:00:18;;;;;;;1.48;0.73;;;20.80;99.90;;;;;;5040324;28;20045;-66
2022/08/17 06:03:06;;;;;;;0.20;0.20;;;20.80;99.90;;;;;;5036483;28;20183;-66
2022/08/17 06:06:00;;;;;;;0.10;0.10;;;20.90;99.90;;;;;;5051243;28;20113;-66
2022/08/17 06:08:35;;;;;;;0.32;0.32;;;20.90;99.90;;;;;;5043232;28;20494;-66
2022/08/17 06:11:03;;;;;;;7.93;0.32;;;21.00;99.90;;;;;;5039208;28;20057;-66
2022/08/17 06:13:54;;;;;;;0.73;0.70;;;21.00;99.90;;;;;;5048945;28;20038;-67
2022/08/17 06:16:25;;;;;;;0.08;0.08;;;21.00;99.90;;;;;;5028041;28;20129;-67
2022/08/17 06:19:18;;;;;;;0.70;0.70;;;21.00;99.90;;;;;;5043135;28;20076;-66
2022/08/17 06:21:48;;;;;;;1.93;1.00;;;21.10;99.90;;;;;;5047243;28;20105;-67
2022/08/17 06:24:22;;;;;;;0.70;0.68;;;21.10;99.90;;;;;;5050015;28;20056;-66
2022/08/17 06:26:49;;;;;;;0.68;0.68;;;21.10;99.90;;;;;;5035540;28;20042;-67
2022/08/17 06:29:39;;;;;;;0.43;0.43;;;21.10;99.90;;;;;;5030137;28;20053;-66
2022/08/17 06:32:08;;;;;;;2.08;1.17;;;21.10;99.90;;;;;;5040178;28;20052;-66
2022/08/17 06:34:36;;;;;;;0.45;0.45;;;21.10;99.90;;;;;;5044515;28;20049;-67
2022/08/17 06:37:18;;;;;;;0.40;0.40;;;21.20;99.90;;;;;;5048094;28;20362;-66
2022/08/17 06:39:53;;;;;;;1.13;1.08;;;21.10;99.90;;;;;;5035419;28;20121;-66
2022/08/17 06:42:46;;;;;;;0.25;0.25;;;21.10;99.90;;;;;;5039644;28;20075;-67
2022/08/17 06:45:15;;;;;;;;;;;21.20;99.90;;;;;;5047984;28;20138;-67
2022/08/17 06:47:54;;;;;;;0.70;0.52;;;21.10;99.90;;;;;;5034784;28;19975;-67
2022/08/17 06:50:35;;;;;;;0.20;0.20;;;21.10;99.90;;;;;;5037279;28;20400;-67
2022/08/17 06:53:23;;;;;;;1.85;1.10;;;21.10;99.90;;;;;;5032644;28;20151;-67
2022/08/17 06:56:05;;;;;;;0.17;0.17;;;21.10;99.90;;;;;;5035860;28;20052;-67
2022/08/17 06:58:32;;;;;;;0.95;0.73;;;21.10;99.90;;;;;;5047657;28;20051;-67
2022/08/17 07:01:05;;;;;;;0.43;0.43;;;21.10;99.90;;;;;;5041835;28;20492;-67
2022/08/17 07:03:40;;;;;;;0.20;0.20;;;21.20;99.90;;;;;;5042404;28;20056;-67
2022/08/17 07:06:13;;;;;;;0.20;0.20;;;21.20;99.90;;;;;;5044512;28;20048;-66
2022/08/17 07:09:06;;;;;;;0.25;0.22;;;21.20;99.90;;;;;;5036668;28;20449;-67
2022/08/17 07:11:40;;;;;;;0.52;0.52;;;21.20;99.90;;;;;;5026261;28;20069;-67
2022/08/17 07:14:18;;;;;;;0.73;0.60;;;21.10;99.90;;;;;;5027633;28;20548;-66
2022/08/17 07:16:49;;;;;;;1.52;1.42;;;21.20;99.90;;;;;;5035314;28;20045;-67
2022/08/17 07:19:17;;;;;;;8.25;1.05;;;21.20;99.90;;;;;;5032052;28;20048;-67
2022/08/17 07:21:53;;;;;;;1.45;0.73;;;21.20;99.90;;;;;;5040083;28;20057;-67
2022/08/17 07:24:46;;;;;;;4.85;1.15;;;21.20;99.90;;;;;;5040028;28;20128;-67
2022/08/17 07:27:19;;;;;;;0.95;0.95;;;21.20;99.90;;;;;;5045981;28;20080;-67
2022/08/17 07:29:55;;;;;;;1.05;0.75;;;21.20;99.90;;;;;;5047583;28;20040;-67
2022/08/17 07:32:44;;;;;;;0.20;0.20;;;21.20;99.90;;;;;;5035500;28;20045;-67
2022/08/17 07:35:21;;;;;;;0.50;0.50;;;21.20;99.90;;;;;;5044620;28;20060;-67
2022/08/17 07:38:16;;;;;;;0.73;0.25;;;21.20;99.90;;;;;;5033587;28;20045;-67
2022/08/17 07:41:09;;;;;;;2.45;0.43;;;21.20;99.90;;;;;;5030414;28;20053;-67
2022/08/17 07:43:38;;;;;;;0.45;0.45;;;21.20;99.90;;;;;;5035933;28;20061;-67
2022/08/17 07:49:11;;;;;;;0.10;0.10;;;21.30;99.90;;;;;;5037077;28;20061;-66
2022/08/17 07:51:42;;;;;;;1.08;0.98;;;21.30;99.90;;;;;;5028631;28;20041;-66
2022/08/17 07:54:11;;;;;;;0.20;0.20;;;21.30;99.90;;;;;;5047189;28;20072;-67
2022/08/17 07:57:00;;;;;;;1.00;0.90;;;21.20;99.90;;;;;;5033581;28;20041;-66
2022/08/17 07:59:33;;;;;;;2.60;0.80;;;21.20;99.90;;;;;;5035547;28;20584;-67
2022/08/17 08:02:02;;;;;;;0.30;0.20;;;21.20;99.90;;;;;;5043388;28;20127;-67
2022/08/17 08:04:41;;;;;;;0.35;0.35;;;21.20;99.90;;;;;;5040109;28;20452;-67
2022/08/17 08:07:38;;;;;;;3.53;0.77;;;21.20;99.90;;;;;;5038805;28;20037;-67
2022/08/17 08:10:27;;;;;;;1.00;0.73;;;21.10;99.90;;;;;;5028698;28;20091;-66
2022/08/17 08:13:23;;;;;;;0.20;0.20;;;21.00;99.90;;;;;;5041014;28;20487;-67
2022/08/17 08:15:52;;;;;;;0.20;0.20;;;21.10;99.90;;;;;;5043482;28;20053;-67
2022/08/17 08:18:24;;;;;;;0.20;0.20;;;21.00;99.90;;;;;;5033776;28;20091;-66
2022/08/17 08:20:57;;;;;;;0.13;0.13;;;21.00;99.90;;;;;;5035511;28;20079;-66
2022/08/17 08:23:35;;;;;;;5.18;0.93;;;21.00;99.90;;;;;;5027631;28;20045;-67
2022/08/17 08:26:32;;;;;;;0.20;0.20;;;21.00;99.90;;;;;;5041294;28;20444;-67
2022/08/17 08:29:21;;;;;;;0.30;0.30;;;21.00;99.90;;;;;;5039028;28;20129;-67
2022/08/17 08:32:22;;;;;;;0.93;0.65;;;21.00;99.90;;;;;;5048045;28;20068;-67
2022/08/17 08:34:56;;;;;;;0.52;0.52;;;20.90;99.90;;;;;;4998858;28;20045;-66
2022/08/17 08:37:24;;;;;;;0.80;0.65;;;20.90;99.90;;;;;;5042034;28;20131;-67
2022/08/17 08:40:12;;;;;;;0.77;0.73;;;20.90;99.90;;;;;;5039820;28;20045;-67
2022/08/17 08:43:15;;;;;;;0.10;0.10;;;20.90;99.90;;;;;;5045426;28;20583;-67
2022/08/17 08:45:55;;;;;;;0.45;0.45;;;20.90;99.90;;;;;;5048068;28;20103;-67
2022/08/17 08:48:45;;;;;;;0.20;0.20;;;20.90;99.90;;;;;;5027355;28;20485;-67
2022/08/17 08:51:19;;;;;;;2.50;1.25;;;20.90;99.90;;;;;;5034999;28;20067;-68
2022/08/17 08:54:21;;;;;;;0.32;0.32;;;20.80;99.90;;;;;;5056363;28;20065;-68
2022/08/17 08:56:56;;;;;;;0.30;0.30;;;20.90;99.90;;;;;;5039302;28;20111;-68
2022/08/17 08:59:33;;;;;;;0.75;0.75;;;20.80;99.90;;;;;;5042695;28;20045;-68
2022/08/17 09:02:07;;;;;;;0.45;0.45;;;20.80;99.90;;;;;;5037652;28;20107;-68
2022/08/17 09:04:48;;;;;;;0.73;0.63;;;20.80;99.90;;;;;;5047417;28;20401;-68
2022/08/17 09:07:42;;;;;;;0.60;0.60;;;20.80;99.90;;;;;;5043345;28;20045;-68
2022/08/17 09:10:21;;;;;;;1.13;0.40;;;20.70;99.90;;;;;;5035401;28;20132;-67
2022/08/17 09:13:12;;;;;;;0.47;0.25;;;20.70;99.90;;;;;;5046795;28;20489;-67
2022/08/17 09:15:44;;;;;;;2.75;1.55;;;20.70;99.90;;;;;;5042261;28;20057;-67
2022/08/17 09:18:20;;;;;;;0.15;0.10;;;20.70;99.90;;;;;;5032657;28;20045;-66
2022/08/17 09:20:56;;;;;;;0.13;0.13;;;20.70;99.90;;;;;;5036462;28;20045;-67
2022/08/17 09:23:43;;;;;;;2.03;1.08;;;20.60;99.90;;;;;;5029919;28;20393;-67
2022/08/17 09:26:21;;;;;;;1.38;0.82;;;20.60;99.90;;;;;;5033285;28;20046;-67
2022/08/17 09:28:50;;;;;;;0.20;0.20;;;20.60;99.90;;;;;;5032546;28;20080;-67
2022/08/17 09:31:22;;;;;;;1.00;0.98;;;20.70;99.90;;;;;;5034456;28;20493;-67
2022/08/17 09:33:50;;;;;;;0.80;0.80;;;20.60;99.90;;;;;;5032020;28;20053;-67
2022/08/17 09:36:31;;;;;;;1.08;0.82;;;20.60;99.90;;;;;;5036369;28;20287;-67
2022/08/17 09:39:06;;;;;;;1.33;1.20;;;20.60;99.90;;;;;;5044369;28;20045;-67
2022/08/17 09:41:44;;;;;;;0.10;0.10;;;20.60;99.90;;;;;;5032567;28;20056;-68
2022/08/17 09:44:27;;;;;;;1.23;1.13;;;20.60;99.90;;;;;;5046794;28;20797;-68
2022/08/17 09:47:03;;;;;;;0.17;0.17;;;20.60;99.90;;;;;;5040556;28;20259;-68
2022/08/17 09:49:50;;;;;;;0.85;0.73;;;20.60;99.90;;;;;;5046576;28;20048;-68
2022/08/17 09:52:25;;;;;;;0.22;0.22;;;20.50;99.90;;;;;;5036153;28;20129;-68
2022/08/17 09:54:53;;;;;;;0.43;0.43;;;20.50;99.90;;;;;;5043744;28;20052;-67
2022/08/17 09:57:22;;;;;;;0.70;0.70;;;20.40;99.90;;;;;;5043445;28;20047;-67
2022/08/17 10:00:14;;;;;;;0.10;0.10;;;20.40;99.90;;;;;;5037769;28;20072;-68
2022/08/17 10:03:04;;;;;;;1.25;1.15;;;20.30;99.90;;;;;;5043294;28;20090;-68
2022/08/17 10:05:38;;;;;;;0.25;0.25;;;20.20;99.90;;;;;;5031407;28;20049;-68
2022/08/17 10:08:26;;;;;;;0.20;0.20;;;20.20;99.90;;;;;;5044741;28;20067;-68
2022/08/17 10:12:14;;;;;;;0.45;0.45;;;20.10;99.90;;;;;;5034348;28;20045;-67
2022/08/17 10:14:25;;;;;;;1.35;0.30;;;20.20;99.90;;;;;;5029531;28;20063;-67
2022/08/17 10:17:00;;;;;;;0.57;0.57;;;20.10;99.90;;;;;;5039712;28;20060;-68
2022/08/17 10:19:42;;;;;;;0.40;0.40;;;20.00;99.90;;;;;;5034304;28;20133;-68
2022/08/17 10:28:06;;;;;;;0.00;0.00;;;19.90;99.90;;;;;;5032463;28;20045;-68
2022/08/17 10:30:36;;;;;;;0.65;0.65;;;19.80;99.90;;;;;;5036961;28;20045;-68
2022/08/17 10:33:11;;;;;;;0.20;0.20;;;19.70;99.90;;;;;;5048557;28;20053;-68
2022/08/17 10:36:10;;;;;;;0.00;0.00;;;19.70;99.90;;;;;;5034616;28;20111;-68
2022/08/17 10:38:44;;;;;;;0.10;0.10;;;19.70;99.90;;;;;;5036502;28;20060;-68
2022/08/17 10:41:40;;;;;;;0.35;0.35;;;19.80;99.90;;;;;;5045584;28;20539;-68
2022/08/17 10:44:31;;;;;;;0.55;0.30;;;19.80;99.90;;;;;;5031306;28;20050;-68
2022/08/17 10:47:06;;;;;;;0.57;0.40;;;19.90;99.90;;;;;;5045473;28;20099;-69
2022/08/17 10:49:48;;;;;;;1.40;1.00;;;20.10;99.90;;;;;;5049729;28;20082;-69
2022/08/17 10:52:20;;;;;;;0.20;0.20;;;20.20;99.90;;;;;;5040115;28;20053;-69
2022/08/17 10:54:55;;;;;;;0.50;0.50;;;20.30;99.90;;;;;;5038448;28;20053;-69
2022/08/17 10:57:32;;;;;;;0.13;0.13;;;20.40;99.90;;;;;;5042915;28;20049;-70
2022/08/17 11:00:09;;;;;;;0.57;0.57;;;20.60;99.90;;;;;;5048549;28;20082;-70
2022/08/17 11:02:54;;;;;;;4.78;0.45;;;20.60;99.90;;;;;;5048529;28;20056;-71
2022/08/17 11:05:28;;;;;;;0.63;0.63;;;20.50;99.90;;;;;;5035050;28;20053;-70
2022/08/17 11:08:27;;;;;;;0.25;0.25;;;20.60;99.90;;;;;;5037507;28;20172;-70
2022/08/17 11:11:34;;;;;;;1.85;1.20;;;20.50;99.90;;;;;;5043381;28;20263;-70
2022/08/17 11:14:23;;;;;;;0.00;0.00;;;20.50;99.90;;;;;;5040210;28;20041;-70
2022/08/17 11:17:14;;;;;;;0.13;0.13;;;20.60;99.90;;;;;;5063384;28;20477;-70
2022/08/17 11:19:48;;;;;;;0.45;0.45;;;20.50;99.90;;;;;;5037355;28;20069;-70
2022/08/17 11:22:35;;;;;;;0.17;0.17;;;20.40;99.90;;;;;;5036837;28;20029;-70
2022/08/17 11:25:18;;;;;;;0.20;0.20;;;20.40;99.90;;;;;;5039521;28;20447;-70
2022/08/17 11:27:52;;;;;;;1.17;0.73;;;20.40;99.90;;;;;;5051466;28;20099;-69
2022/08/17 11:30:43;;;;;;;0.10;0.10;;;20.40;99.90;;;;;;5035317;28;20072;-70
2022/08/17 11:33:27;;;;;;;2.40;0.40;;;20.40;99.90;;;;;;5039682;28;20040;-70
2022/08/17 11:36:13;;;;;;;0.77;0.60;;;20.50;99.90;;;;;;5039262;28;20057;-70
2022/08/17 11:38:47;;;;;;;0.20;0.20;;;20.50;99.90;;;;;;5032462;28;20057;-70
2022/08/17 11:41:47;;;;;;;0.17;0.17;;;20.50;99.90;;;;;;5033713;28;20408;-70
2022/08/17 11:44:31;;;;;;;1.17;0.57;;;20.60;99.90;;;;;;5035810;28;20059;-70
2022/08/17 11:53:51;;;;;;;3.00;0.47;;;20.80;99.90;;;;;;5058494;28;20485;-70
2022/08/17 11:56:42;;;;;;;0.20;0.20;;;20.70;99.90;;;;;;5032044;28;20045;-70
2022/08/17 11:59:42;;;;;;;0.32;0.32;;;20.80;99.90;;;;;;5041281;28;20045;-70
2022/08/17 12:02:33;;;;;;;0.05;0.05;;;20.80;99.90;;;;;;5025770;28;20106;-70
2022/08/17 12:05:25;;;;;;;1.15;0.98;;;20.80;99.90;;;;;;5028325;28;20064;-70
2022/08/17 12:07:59;;;;;;;1.02;1.02;;;20.80;99.90;;;;;;5038744;28;20057;-70
2022/08/17 12:10:30;;;;;;;0.25;0.25;;;20.80;99.90;;;;;;5041804;28;20048;-70
2022/08/17 12:13:04;;;;;;;0.50;0.50;;;20.80;99.90;;;;;;5045424;28;20067;-70
2022/08/17 12:15:35;;;;;;;0.40;0.40;;;20.90;99.90;;;;;;5046196;28;20049;-70
2022/08/17 12:18:01;;;;;;;0.90;0.85;;;20.90;99.90;;;;;;5035624;28;20052;-70
2022/08/17 12:20:31;;;;;;;0.50;0.30;;;21.00;99.90;;;;;;5038903;28;20614;-70
2022/08/17 12:23:05;;;;;;;0.50;0.50;;;21.00;99.90;;;;;;5032130;28;23125;-70
2022/08/17 12:25:59;;;;;;;0.30;0.30;;;21.00;99.90;;;;;;5033558;28;20497;-70
2022/08/17 12:28:28;;;;;;;0.40;0.40;;;21.10;99.90;;;;;;5047262;28;20045;-70
2022/08/17 12:30:59;;;;;;;0.10;0.10;;;21.10;99.90;;;;;;5048487;28;20043;-70
2022/08/17 12:33:27;;;;;;;0.90;0.85;;;21.20;99.90;;;;;;5033921;28;20045;-70
2022/08/17 12:36:05;;;;;;;0.45;0.45;;;21.20;99.90;;;;;;5038391;28;20546;-70
2022/08/17 12:38:35;;;;;;;0.52;0.47;;;21.30;99.90;;;;;;5048071;28;20085;-71
2022/08/17 12:41:25;;;;;;;0.30;0.30;;;21.40;99.90;;;;;;5042563;28;20049;-71
2022/08/17 12:44:11;;;;;;;0.55;0.55;;;21.50;99.90;;;;;;5035417;28;20501;-71
2022/08/17 12:46:45;;;;;;;0.15;0.15;;;21.60;99.90;;;;;;5048136;28;20045;-71
2022/08/17 12:49:24;;;;;;;0.63;0.63;;;21.70;99.90;;;;;;5039148;28;20045;-71
2022/08/17 12:51:52;;;;;;;0.85;0.85;;;21.80;99.90;;;;;;5053794;28;20094;-71
2022/08/17 12:54:28;;;;;;;0.40;0.40;;;21.80;99.90;;;;;;5033099;28;20175;-71
2022/08/17 12:56:54;;;;;;;21.45;1.30;;;21.90;99.90;;;;;;5044512;28;20401;-70
2022/08/17 12:59:21;;;;;;;1.02;0.93;;;22.00;99.90;;;;;;5047719;28;20167;-70
2022/08/17 13:01:47;;;;;;;0.85;0.80;;;22.20;99.90;;;;;;5042629;28;20041;-70
2022/08/17 13:04:14;;;;;;;5.15;1.25;;;22.10;99.90;;;;;;5033273;28;20413;-70
2022/08/17 13:06:47;;;;;;;0.45;0.45;;;22.20;99.90;;;;;;5034892;28;20058;-70
2022/08/17 13:09:20;;;;;;;0.00;0.00;;;22.00;99.90;;;;;;5031348;28;20060;-70
2022/08/17 13:11:49;;;;;;;0.63;0.50;;;22.10;99.90;;;;;;5039143;28;20088;-70
2022/08/17 13:14:17;;;;;;;1.27;0.60;;;22.00;99.90;;;;;;5038986;28;20439;-70
2022/08/17 13:16:58;;;;;;;1.17;0.68;;;21.90;99.90;;;;;;5037091;28;20060;-70
2022/08/17 13:19:26;;;;;;;0.25;0.25;;;21.80;99.90;;;;;;5030563;28;20081;-70
2022/08/17 13:21:54;;;;;;;0.43;0.17;;;21.80;99.90;;;;;;5040899;28;20412;-70
2022/08/17 13:24:30;;;;;;;0.40;0.40;;;21.80;99.90;;;;;;5034948;28;20123;-69
2022/08/17 13:27:04;;;;;;;0.25;0.25;;;21.90;99.90;;;;;;5041992;28;20055;-69
2022/08/17 13:29:37;;;;;;;0.25;0.25;;;21.90;99.90;;;;;;5045751;28;21326;-69
2022/08/17 13:32:02;;;;;;;;;;;21.80;99.90;;;;;;5050833;28;20649;-70
2022/08/17 13:34:28;;;;;;;2.58;0.95;;;21.80;99.90;;;;;;5048433;28;19924;-70
2022/08/17 13:37:25;;;;;;;0.20;0.20;;;21.70;99.90;;;;;;5043930;28;20041;-70
2022/08/17 13:40:09;;;;;;;2.55;0.40;;;21.80;99.90;;;;;;5034521;28;20136;-70
2022/08/17 13:42:51;;;;;;;0.43;0.43;;;21.80;99.90;;;;;;5049240;28;20511;-71
2022/08/17 13:48:07;;;;;;;1.50;0.30;;;21.90;99.90;;;;;;5033824;28;20513;-71
2022/08/17 13:50:55;;;;;;;1.50;1.40;;;22.00;99.90;;;;;;5036817;28;20097;-71
2022/08/17 13:53:29;;;;;;;0.57;0.57;;;22.00;99.90;;;;;;5045471;28;20451;-71